Flight Track Log - Related Links

Times and Time Zones

All times are in EDT time to prevent confusion due to time zone crossing. See the TAM3421 flight status page for this flight to view local times or setup timezone preferences in your user account.

Time Position Orientation Groundspeed Altitude Reporting Facility
EDT Latitude Longitude Course Direction KTS MPH feet Rate Location/Type
Mon 03:18:00 PM -2.1265 -52.9855 81° East  Level Estimated
Mon 03:19:00 PM -2.1117 -52.8952 81° East  Level Estimated
Mon 03:20:00 PM -2.0968 -52.8048 81° East  Level Estimated
Mon 03:21:00 PM -2.0820 -52.7145 81° East  Level Estimated
Mon 03:22:00 PM -2.0671 -52.6241 81° East  Level Estimated
Mon 03:23:00 PM -2.0522 -52.5338 81° East  Level Estimated
Mon 03:24:00 PM -2.0373 -52.4435 81° East  Level Estimated
Mon 03:25:00 PM -2.0225 -52.3531 81° East  Level Estimated
Mon 03:26:00 PM -2.0076 -52.2628 81° East  Level Estimated
Mon 03:27:00 PM -1.9927 -52.1725 81° East  Level Estimated
Mon 03:28:00 PM -1.9778 -52.0821 81° East  Level Estimated
Mon 03:29:00 PM -1.9629 -51.9918 81° East  Level Estimated
Mon 03:30:00 PM -1.9480 -51.9015 81° East  Level Estimated
Mon 03:31:00 PM -1.9331 -51.8112 81° East  Level Estimated
Mon 03:32:00 PM -1.9181 -51.7209 81° East  Level Estimated
Mon 03:33:00 PM -1.9032 -51.6305 81° East  Level Estimated
Mon 03:34:00 PM -1.8883 -51.5402 81° East  Level Estimated
Mon 03:35:00 PM -1.8734 -51.4499 81° East  Level Estimated
Mon 03:36:00 PM -1.8584 -51.3596 81° East  Level Estimated
Mon 03:37:00 PM -1.8435 -51.2692 81° East  Level Estimated
Mon 03:38:00 PM -1.8285 -51.1789 81° East  Level Estimated
Mon 03:39:00 PM -1.8136 -51.0886 81° East  Level Estimated
Mon 03:40:00 PM -1.7986 -50.9983 81° East  Level Estimated
Mon 03:41:00 PM -1.7837 -50.9080 81° East  Level Estimated
Mon 03:42:00 PM -1.7687 -50.8177 81° East  Level Estimated
Mon 03:43:00 PM -1.7537 -50.7274 81° East  Level Estimated
Mon 03:44:00 PM -1.7388 -50.6371 81° East  Level Estimated
Mon 03:45:00 PM -1.7238 -50.5468 81° East  Level Estimated
Mon 03:46:00 PM -1.7088 -50.4565 81° East  Level Estimated
Mon 03:47:00 PM -1.6938 -50.3662 81° East  Level Estimated
Mon 03:48:00 PM -1.6788 -50.2759 81° East  Level Estimated
Mon 03:49:00 PM -1.6638 -50.1856 81° East  Level Estimated
Mon 03:50:00 PM -1.6488 -50.0953 81° East  Level Estimated
Mon 03:51:00 PM -1.6338 -50.0050 81° East  Level Estimated
Mon 03:52:00 PM -1.6188 -49.9147 81° East  Level Estimated
Mon 03:53:00 PM -1.6038 -49.8244 81° East  Level Estimated
Mon 03:54:00 PM -1.5888 -49.7341 81° East  Level Estimated
Mon 03:55:00 PM -1.5738 -49.6438 81° East  Level Estimated
Mon 03:56:00 PM -1.5588 -49.5535 81° East  Level Estimated
Mon 03:57:00 PM -1.5438 -49.4632 81° East  Level Estimated
Mon 03:58:00 PM -1.5287 -49.3730 81° East  Level Estimated
Mon 03:59:00 PM -1.5137 -49.2827 81° East  Level Estimated
Mon 04:00:00 PM -1.4986 -49.1924 81° East  Level Estimated
Mon 04:01:00 PM -1.4836 -49.1021 81° East  Level Estimated
Mon 04:02:00 PM -1.4686 -49.0118 81° East  Level Estimated
Mon 04:03:00 PM -1.4535 -48.9216 81° East  Level Estimated
Mon 04:04:00 PM -1.4385 -48.8313 81° East  Level Estimated
Mon 04:05:00 PM -1.4234 -48.7410 81° East  Level Estimated
Mon 04:06:00 PM -1.4083 -48.6507 81° East  Level Estimated
Mon 04:07:00 PM -1.3933 -48.5604 81° East  Level Estimated
Mon 04:08:00 PM -1.3793 -48.4763 81° East  Level Estimated
Mon 04:09:00 PM -1.3793 -48.4763 270° West  Level Estimated
Mon 04:10:00 PM -1.3793 -48.4763 270° West  Level Estimated
Mon 04:11:00 PM -1.3793 -48.4763 270° West  Level Estimated
Mon 04:12:00 PM -1.3793 -48.4763 270° West  Level Estimated
Mon 04:13:00 PM -1.3793 -48.4763 270° West  Level Estimated
Mon 04:14:00 PM -1.3793 -48.4763 270° West  Level Estimated
Mon 04:15:00 PM -1.3793 -48.4763 270° West  Level Estimated
Mon 04:16:00 PM -1.3793 -48.4763 270° West  Level Estimated
Mon 04:17:00 PM -1.3793 -48.4763 270° West  Level Estimated
Mon 04:18:00 PM -1.3793 -48.4763 270° West  Level Estimated
Mon 04:19:00 PM -1.3793 -48.4763 270° West  Level Estimated
Mon 04:20:00 PM -1.3793 -48.4763 270° West  Level Estimated
Mon 04:21:00 PM -1.3793 -48.4763 270° West  Level Estimated
Mon 04:22:00 PM -1.3793 -48.4763 270° West  Level Estimated
Mon 04:23:00 PM -1.3793 -48.4763 270° West  Level Estimated
Mon 04:24:00 PM -1.3793 -48.4763 270° West  Level Estimated

Login

Don't have an account? Register now (free) for customized features, flight alerts, and more!